Time;durP1;ratioP1;P1;durP2;ratioP2;P2;SDS_P1;SDS_P2;PMS_P1;PMS_P2;Temp;Humidity;BMP_temperature;BMP_pressure;BME280_temperature;BME280_humidity;BME280_pressure;Samples;Min_cycle;Max_cycle;Signal;HPM_P1;HPM_P2
2022/12/10 00:01:12;;;;;;;37.83;15.55;;;-2.20;99.90;;;;;;5073955;28;20029;-71
2022/12/10 00:03:38;;;;;;;36.30;17.77;;;-2.20;99.90;;;;;;5071907;28;20550;-69
2022/12/10 00:06:07;;;;;;;32.00;13.55;;;-2.20;99.90;;;;;;5081862;28;20032;-68
2022/12/10 00:08:34;;;;;;;24.65;11.63;;;-2.30;99.90;;;;;;5071893;28;20514;-70
2022/12/10 00:11:02;;;;;;;26.55;11.30;;;-2.10;99.90;;;;;;5074956;28;20473;-69
2022/12/10 00:13:28;;;;;;;50.75;22.63;;;-2.00;99.90;;;;;;5072837;28;20043;-70
2022/12/10 00:15:54;;;;;;;35.50;14.68;;;-1.90;99.90;;;;;;5071284;28;20111;-70
2022/12/10 00:18:19;;;;;;;43.42;19.75;;;-1.80;99.90;;;;;;5073248;28;20037;-70
2022/12/10 00:20:46;;;;;;;27.65;11.68;;;-1.40;99.90;;;;;;5070506;28;20029;-69
2022/12/10 00:23:12;;;;;;;36.53;18.77;;;-1.40;99.90;;;;;;5075955;28;20120;-69
2022/12/10 00:25:37;;;;;;;33.35;17.00;;;-1.50;99.90;;;;;;5070860;28;20044;-68
2022/12/10 00:28:03;;;;;;;31.35;14.95;;;-1.70;99.90;;;;;;5070721;28;20032;-67
2022/12/10 00:30:29;;;;;;;29.85;13.82;;;-1.90;99.90;;;;;;5073011;28;20024;-70
2022/12/10 00:32:55;;;;;;;33.40;14.95;;;-2.10;99.90;;;;;;5072260;28;20024;-69
2022/12/10 00:35:21;;;;;;;31.58;15.02;;;-2.20;99.90;;;;;;5072772;28;20123;-68
2022/12/10 00:37:47;;;;;;;28.00;13.70;;;-2.30;99.90;;;;;;5070607;28;20036;-69
2022/12/10 00:40:12;;;;;;;35.75;15.35;;;-2.40;99.90;;;;;;5069933;28;20086;-69
2022/12/10 00:42:38;;;;;;;34.30;15.40;;;-2.40;99.90;;;;;;5070629;28;20028;-69
2022/12/10 00:45:05;;;;;;;33.30;17.30;;;-2.50;99.90;;;;;;5083179;28;20024;-69
2022/12/10 00:47:31;;;;;;;29.83;14.18;;;-2.50;99.90;;;;;;5071523;28;20024;-70
2022/12/10 00:49:56;;;;;;;24.63;11.90;;;-2.40;99.90;;;;;;5073129;28;20116;-70
2022/12/10 00:52:22;;;;;;;21.05;10.65;;;-2.30;99.90;;;;;;5080199;28;20116;-69
2022/12/10 00:54:48;;;;;;;28.45;12.13;;;-2.20;99.90;;;;;;5071196;28;20032;-69
2022/12/10 00:57:13;;;;;;;24.92;11.60;;;-2.00;99.90;;;;;;5079807;28;20040;-69
2022/12/10 00:59:39;;;;;;;32.53;14.68;;;-2.00;99.90;;;;;;5077470;28;20024;-69
2022/12/10 01:02:05;;;;;;;27.88;13.57;;;-2.00;99.90;;;;;;5074837;28;20101;-69
2022/12/10 01:04:31;;;;;;;25.50;13.23;;;-2.20;99.90;;;;;;5078503;28;20028;-67
2022/12/10 01:06:57;;;;;;;29.92;14.55;;;-2.40;99.90;;;;;;5071735;28;20118;-68
2022/12/10 01:09:29;;;;;;;32.38;14.68;;;-2.60;99.90;;;;;;5079779;28;20624;-69
2022/12/10 01:11:57;;;;;;;29.52;15.30;;;-2.70;99.90;;;;;;5071531;28;20541;-68
2022/12/10 01:14:26;;;;;;;38.38;15.00;;;-2.80;99.90;;;;;;5071757;28;20051;-68
2022/12/10 01:16:58;;;;;;;33.78;15.45;;;-2.70;99.90;;;;;;5070586;28;20071;-68
2022/12/10 01:19:24;;;;;;;39.38;15.55;;;-2.80;99.90;;;;;;5071912;28;20098;-68
2022/12/10 01:21:51;;;;;;;35.35;16.38;;;-2.90;99.90;;;;;;5068950;28;20999;-68
2022/12/10 01:24:17;;;;;;;37.63;16.70;;;-3.10;99.90;;;;;;5072144;28;20096;-69
2022/12/10 01:26:43;;;;;;;32.90;15.95;;;-3.20;99.90;;;;;;5068617;28;20062;-68
2022/12/10 01:29:10;;;;;;;33.53;15.48;;;-3.20;99.90;;;;;;5071774;28;20055;-68
2022/12/10 01:31:37;;;;;;;33.55;15.68;;;-3.20;99.90;;;;;;5069673;28;20401;-69
2022/12/10 01:34:05;;;;;;;37.45;16.00;;;-3.20;99.90;;;;;;5071559;28;20024;-69
2022/12/10 01:36:35;;;;;;;34.88;15.27;;;-3.30;99.90;;;;;;5069945;28;20048;-68
2022/12/10 01:39:03;;;;;;;30.05;16.08;;;-3.30;99.90;;;;;;5066390;28;20107;-69
2022/12/10 01:41:35;;;;;;;35.20;16.05;;;-3.30;99.90;;;;;;5070093;28;20380;-68
2022/12/10 01:44:23;;;;;;;39.90;16.83;;;-3.40;99.90;;;;;;5067836;28;20036;-68
2022/12/10 01:46:51;;;;;;;35.13;16.42;;;-3.50;99.90;;;;;;5066588;28;20057;-68
2022/12/10 01:49:26;;;;;;;40.03;16.27;;;-3.60;99.90;;;;;;5071504;28;20040;-68
2022/12/10 01:51:55;;;;;;;32.42;16.10;;;-3.70;99.90;;;;;;5066840;28;20021;-68
2022/12/10 01:54:25;;;;;;;36.28;17.42;;;-3.70;99.90;;;;;;5071281;28;20103;-68
2022/12/10 01:56:58;;;;;;;37.38;17.42;;;-3.80;99.90;;;;;;5068988;28;20032;-69
2022/12/10 01:59:25;;;;;;;36.38;16.50;;;-3.80;99.90;;;;;;5069818;28;20040;-69
2022/12/10 02:02:14;;;;;;;36.38;15.88;;;-3.70;99.90;;;;;;5069063;28;20074;-68
2022/12/10 02:04:39;;;;;;;34.00;16.05;;;-3.70;99.90;;;;;;5069268;28;20028;-69
2022/12/10 02:07:11;;;;;;;34.15;15.18;;;-3.80;99.90;;;;;;5070622;28;20060;-68
2022/12/10 02:09:36;;;;;;;35.08;16.52;;;-3.80;99.90;;;;;;5068878;28;20028;-68
2022/12/10 02:12:23;;;;;;;37.30;17.63;;;-3.70;99.90;;;;;;5069569;28;20032;-69
2022/12/10 02:14:57;;;;;;;31.50;15.68;;;-3.80;99.90;;;;;;5068500;28;20040;-68
2022/12/10 02:17:38;;;;;;;35.13;17.27;;;-3.90;99.90;;;;;;5070721;28;20029;-68
2022/12/10 02:20:30;;;;;;;32.13;14.70;;;-3.90;99.90;;;;;;5063437;28;20056;-67
2022/12/10 02:23:05;;;;;;;30.58;14.85;;;-3.90;99.90;;;;;;5055708;28;20496;-68
2022/12/10 02:25:49;;;;;;;33.20;16.25;;;-3.90;99.90;;;;;;5063080;28;20031;-68
2022/12/10 02:28:30;;;;;;;34.30;14.60;;;-3.90;99.90;;;;;;5059180;28;20025;-68
2022/12/10 02:30:57;;;;;;;35.83;16.52;;;-3.90;99.90;;;;;;5070276;28;20035;-67
2022/12/10 02:33:25;;;;;;;32.70;15.65;;;-3.90;99.90;;;;;;5070609;28;20043;-68
2022/12/10 02:35:52;;;;;;;31.98;15.43;;;-4.00;99.90;;;;;;5068341;28;20366;-68
2022/12/10 02:38:30;;;;;;;31.58;15.10;;;-4.00;99.90;;;;;;5067112;28;20044;-68
2022/12/10 02:41:02;;;;;;;33.30;14.75;;;-4.00;99.90;;;;;;5061764;28;20047;-67
2022/12/10 02:43:29;;;;;;;;;;;-4.00;99.90;;;;;;5069996;28;20055;-68
2022/12/10 02:45:57;;;;;;;28.13;14.68;;;-4.10;99.90;;;;;;5068610;28;20358;-69
2022/12/10 02:48:24;;;;;;;34.58;15.15;;;-4.00;99.90;;;;;;5070228;28;20500;-68
2022/12/10 02:50:50;;;;;;;33.92;15.55;;;-4.00;99.90;;;;;;5071188;28;20464;-68
2022/12/10 02:53:16;;;;;;;36.95;16.13;;;-4.10;99.90;;;;;;5070242;28;20094;-68
2022/12/10 02:56:19;;;;;;;30.67;15.13;;;-4.20;99.90;;;;;;5068264;28;20028;-67
2022/12/10 02:58:59;;;;;;;32.58;16.15;;;-4.20;99.90;;;;;;5065836;28;20024;-68
2022/12/10 03:01:28;;;;;;;37.20;15.00;;;-4.20;99.90;;;;;;5070195;28;20028;-68
2022/12/10 03:04:04;;;;;;;34.05;17.55;;;-4.00;99.90;;;;;;5073029;28;20430;-68
2022/12/10 03:06:39;;;;;;;33.22;15.82;;;-4.00;99.90;;;;;;5070084;28;20078;-68
2022/12/10 03:09:21;;;;;;;34.40;15.30;;;-4.00;99.90;;;;;;5072165;28;20017;-67
2022/12/10 03:11:49;;;;;;;;;;;-4.00;99.90;;;;;;5062700;28;20032;-68
2022/12/10 03:14:32;;;;;;;30.33;14.70;;;-4.10;99.90;;;;;;5069604;28;20012;-67
2022/12/10 03:17:03;;;;;;;35.75;14.55;;;-4.10;99.90;;;;;;5071471;28;20043;-68
2022/12/10 03:19:45;;;;;;;22.80;12.43;;;-4.10;99.90;;;;;;5067558;28;20074;-68
2022/12/10 03:22:13;;;;;;;28.45;15.02;;;-4.10;99.90;;;;;;5063976;28;20059;-68
2022/12/10 03:24:41;;;;;;;34.42;16.77;;;-4.10;99.90;;;;;;5068283;28;20024;-68
2022/12/10 03:27:08;;;;;;;35.70;15.40;;;-4.10;99.90;;;;;;5067488;28;20383;-67
2022/12/10 03:29:39;;;;;;;37.58;15.55;;;-4.10;99.90;;;;;;5067781;28;20024;-67
2022/12/10 03:32:05;;;;;;;31.45;14.85;;;-4.10;99.90;;;;;;5069250;28;20024;-67
2022/12/10 03:34:32;;;;;;;31.38;14.52;;;-4.10;99.90;;;;;;5071007;28;20024;-68
2022/12/10 03:36:59;;;;;;;32.15;14.13;;;-4.10;99.90;;;;;;5069476;28;20102;-67
2022/12/10 03:39:25;;;;;;;31.88;15.77;;;-4.00;99.90;;;;;;5063085;28;20045;-69
2022/12/10 03:41:51;;;;;;;26.92;12.57;;;-4.00;99.90;;;;;;5066944;28;20025;-68
2022/12/10 03:44:32;;;;;;;25.98;12.85;;;-4.00;99.90;;;;;;5069706;28;20123;-68
2022/12/10 03:46:58;;;;;;;21.98;10.73;;;-4.00;99.90;;;;;;5067874;28;20158;-68
2022/12/10 03:49:24;;;;;;;29.77;14.00;;;-4.20;99.90;;;;;;5067044;28;20064;-69
2022/12/10 03:51:50;;;;;;;32.20;13.80;;;-4.10;99.90;;;;;;5067323;28;20034;-69
2022/12/10 03:54:16;;;;;;;29.52;13.65;;;-4.00;99.90;;;;;;5063572;28;20437;-71
2022/12/10 03:56:42;;;;;;;29.10;14.13;;;-4.00;99.90;;;;;;5068872;28;20111;-68
2022/12/10 03:59:07;;;;;;;24.38;12.98;;;-4.00;99.90;;;;;;5058557;28;20562;-68
2022/12/10 04:01:33;;;;;;;18.15;8.70;;;-3.90;99.90;;;;;;5067748;28;20159;-68
2022/12/10 04:03:59;;;;;;;25.83;10.93;;;-3.90;99.90;;;;;;5069258;28;20020;-67
2022/12/10 04:06:25;;;;;;;22.98;11.65;;;-4.10;99.90;;;;;;5068751;28;20064;-68
2022/12/10 04:08:53;;;;;;;32.67;13.40;;;-4.10;99.90;;;;;;5066784;28;20036;-67
2022/12/10 04:11:19;;;;;;;26.05;14.45;;;-4.10;99.90;;;;;;5067396;28;20032;-68
2022/12/10 04:16:31;;;;;;;23.67;10.13;;;-4.10;99.90;;;;;;5077157;28;20078;-67
2022/12/10 04:19:04;;;;;;;20.80;8.15;;;-4.10;99.90;;;;;;5068896;28;20071;-68
2022/12/10 04:27:18;;;;;;;17.13;8.13;;;-4.10;99.90;;;;;;5067402;28;20032;-68
2022/12/10 04:29:44;;;;;;;12.57;6.68;;;-4.10;99.90;;;;;;5057416;28;20512;-68
2022/12/10 04:32:10;;;;;;;12.88;5.07;;;-4.10;99.90;;;;;;5070906;28;20159;-68
2022/12/10 04:34:36;;;;;;;24.35;12.48;;;-4.10;99.90;;;;;;5077482;28;20035;-68
2022/12/10 04:37:03;;;;;;;27.95;14.38;;;-4.20;99.90;;;;;;5068833;28;20415;-69
2022/12/10 04:39:29;;;;;;;27.73;14.05;;;-4.10;99.90;;;;;;5055174;28;20044;-69
2022/12/10 04:41:56;;;;;;;31.00;12.80;;;-4.20;99.90;;;;;;5066606;28;20032;-68
2022/12/10 04:44:22;;;;;;;32.95;14.73;;;-4.20;99.90;;;;;;5070861;28;20872;-68
2022/12/10 04:46:48;;;;;;;31.60;14.55;;;-4.20;99.90;;;;;;5070224;28;20036;-68
2022/12/10 04:49:14;;;;;;;29.13;14.63;;;-4.20;99.90;;;;;;5072350;28;20032;-68
2022/12/10 04:51:41;;;;;;;29.02;14.68;;;-4.10;99.90;;;;;;5070622;28;20035;-68
2022/12/10 04:54:07;;;;;;;31.80;16.10;;;-4.10;99.90;;;;;;5072094;28;20029;-68
2022/12/10 04:56:33;;;;;;;32.55;13.93;;;-4.20;99.90;;;;;;5076980;28;20029;-68
2022/12/10 04:59:00;;;;;;;28.45;12.90;;;-4.20;99.90;;;;;;5060514;28;20049;-68
2022/12/10 05:01:26;;;;;;;26.55;13.75;;;-4.20;99.90;;;;;;5070616;28;20040;-67
2022/12/10 05:03:52;;;;;;;31.73;14.30;;;-4.10;99.90;;;;;;5071000;28;20103;-68
2022/12/10 05:06:19;;;;;;;29.45;14.05;;;-4.00;99.90;;;;;;5071791;28;20032;-67
2022/12/10 05:08:46;;;;;;;31.10;15.30;;;-4.10;99.90;;;;;;5068865;28;20033;-68
2022/12/10 05:11:20;;;;;;;32.80;15.13;;;-4.10;99.90;;;;;;5070702;28;20024;-68
2022/12/10 05:13:46;;;;;;;35.35;15.30;;;-4.20;99.90;;;;;;5070517;28;20031;-68
2022/12/10 05:16:15;;;;;;;32.97;15.23;;;-4.30;99.90;;;;;;5072725;28;20088;-68
2022/12/10 05:18:41;;;;;;;37.35;15.88;;;-4.30;99.90;;;;;;5074832;28;20165;-68
2022/12/10 05:21:10;;;;;;;31.30;15.35;;;-4.40;99.90;;;;;;5072122;28;20112;-69
2022/12/10 05:23:38;;;;;;;34.60;14.70;;;-4.40;99.90;;;;;;5069207;28;20048;-68
2022/12/10 05:26:16;;;;;;;30.17;13.32;;;-4.50;99.90;;;;;;5076595;28;20082;-67
2022/12/10 05:28:56;;;;;;;30.67;13.48;;;-4.50;99.90;;;;;;5070620;28;20017;-69
2022/12/10 05:31:25;;;;;;;27.70;13.80;;;-4.50;99.90;;;;;;5071705;28;20036;-67
2022/12/10 05:33:52;;;;;;;29.98;14.60;;;-4.40;99.90;;;;;;5069487;28;20115;-67
2022/12/10 05:36:20;;;;;;;36.80;15.05;;;-4.40;99.90;;;;;;5071839;28;20430;-68
2022/12/10 05:38:47;;;;;;;29.52;14.13;;;-4.40;99.90;;;;;;5069616;28;20036;-68
2022/12/10 05:41:16;;;;;;;28.55;14.38;;;-4.50;99.90;;;;;;5070997;28;20032;-68
2022/12/10 05:43:43;;;;;;;31.88;13.98;;;-4.50;99.90;;;;;;5068573;28;20029;-67
2022/12/10 05:46:14;;;;;;;29.08;14.85;;;-4.60;99.90;;;;;;5071541;28;20059;-68
2022/12/10 05:48:40;;;;;;;25.17;11.73;;;-4.60;99.90;;;;;;5072075;28;20102;-68
2022/12/10 05:51:08;;;;;;;29.52;14.40;;;-4.50;99.90;;;;;;5070012;28;20388;-68
2022/12/10 05:53:35;;;;;;;31.35;13.55;;;-4.40;99.90;;;;;;5076398;28;20507;-69
2022/12/10 05:56:04;;;;;;;33.00;15.50;;;-4.30;99.90;;;;;;5071534;28;20050;-69
2022/12/10 05:58:30;;;;;;;36.65;14.23;;;-4.30;99.90;;;;;;5063437;28;20048;-69
2022/12/10 06:00:57;;;;;;;32.60;14.65;;;-4.20;99.90;;;;;;5065489;28;20025;-69
2022/12/10 06:03:26;;;;;;;23.27;12.77;;;-4.30;99.90;;;;;;5070915;28;20093;-69
2022/12/10 06:05:51;;;;;;;30.90;14.15;;;-4.40;99.90;;;;;;5070591;28;20504;-69
2022/12/10 06:08:17;;;;;;;29.17;15.07;;;-4.40;99.90;;;;;;5069271;28;20043;-68
2022/12/10 06:10:43;;;;;;;27.95;14.18;;;-4.50;99.90;;;;;;5068922;28;20116;-68
2022/12/10 06:13:09;;;;;;;29.38;14.73;;;-4.60;99.90;;;;;;5070837;28;20039;-69
2022/12/10 06:15:40;;;;;;;31.15;14.82;;;-4.60;99.90;;;;;;5069584;28;20028;-68
2022/12/10 06:18:06;;;;;;;40.45;14.75;;;-4.60;99.90;;;;;;5070950;28;20039;-68
2022/12/10 06:20:32;;;;;;;26.23;13.10;;;-4.60;99.90;;;;;;5071435;28;20399;-70
2022/12/10 06:22:58;;;;;;;31.23;13.57;;;-4.70;99.90;;;;;;5077606;28;20043;-69
2022/12/10 06:25:24;;;;;;;32.90;16.58;;;-4.60;99.90;;;;;;5070674;28;20049;-69
2022/12/10 06:27:50;;;;;;;35.28;16.35;;;-4.60;99.90;;;;;;5068445;28;20032;-68
2022/12/10 06:30:16;;;;;;;35.30;17.05;;;-4.60;99.90;;;;;;5082211;28;20052;-70
2022/12/10 06:32:44;;;;;;;33.20;15.07;;;-4.70;99.90;;;;;;5068885;28;20072;-68
2022/12/10 06:35:10;;;;;;;28.98;13.43;;;-4.60;99.90;;;;;;5070505;28;20035;-68
2022/12/10 06:37:37;;;;;;;29.48;14.90;;;-4.60;99.90;;;;;;5071502;28;20391;-68
2022/12/10 06:40:04;;;;;;;35.97;15.18;;;-4.50;99.90;;;;;;5078065;28;20036;-70
2022/12/10 06:42:30;;;;;;;33.63;15.88;;;-4.50;99.90;;;;;;5071067;28;20111;-68
2022/12/10 06:44:57;;;;;;;29.33;14.10;;;-4.50;99.90;;;;;;5068770;28;20105;-67
2022/12/10 06:47:23;;;;;;;33.20;16.08;;;-4.50;99.90;;;;;;5070203;28;20027;-69
2022/12/10 06:49:49;;;;;;;33.10;15.32;;;-4.50;99.90;;;;;;5068482;28;20036;-68
2022/12/10 06:52:14;;;;;;;38.28;15.07;;;-4.60;99.90;;;;;;5070291;28;20035;-69
2022/12/10 06:54:40;;;;;;;35.40;15.07;;;-4.60;99.90;;;;;;5066983;28;20032;-69
2022/12/10 06:57:06;;;;;;;28.50;14.57;;;-4.60;99.90;;;;;;5069568;28;20032;-69
2022/12/10 06:59:32;;;;;;;31.23;15.48;;;-4.60;99.90;;;;;;5049223;28;20128;-69
2022/12/10 07:01:58;;;;;;;32.78;14.23;;;-4.60;99.90;;;;;;5060460;28;20376;-68
2022/12/10 07:04:24;;;;;;;33.75;14.57;;;-4.50;99.90;;;;;;5072050;28;20056;-68
2022/12/10 07:06:50;;;;;;;32.58;15.50;;;-4.60;99.90;;;;;;5070218;28;20017;-69
2022/12/10 07:09:16;;;;;;;27.88;14.38;;;-4.50;99.90;;;;;;5071694;28;20028;-69
2022/12/10 07:11:42;;;;;;;31.08;15.00;;;-4.60;99.90;;;;;;5078326;28;20017;-69
2022/12/10 07:14:16;;;;;;;35.10;16.88;;;-4.60;99.90;;;;;;5071373;28;20025;-69
2022/12/10 07:16:43;;;;;;;34.05;15.98;;;-4.60;99.90;;;;;;5074546;28;20031;-68
2022/12/10 07:19:11;;;;;;;38.45;18.45;;;-4.70;99.90;;;;;;5074347;28;20064;-67
2022/12/10 07:21:39;;;;;;;33.55;15.65;;;-4.80;99.90;;;;;;5069973;28;20043;-68
2022/12/10 07:24:11;;;;;;;36.13;15.43;;;-4.70;99.90;;;;;;5071492;28;20039;-68
2022/12/10 07:26:38;;;;;;;;;;;-4.60;99.90;;;;;;5065077;28;20537;-68
2022/12/10 07:29:05;;;;;;;35.97;14.00;;;-4.70;99.90;;;;;;5073935;28;19919;-68
2022/12/10 07:31:31;;;;;;;34.97;15.53;;;-4.80;99.90;;;;;;5072157;28;20032;-68
2022/12/10 07:33:58;;;;;;;33.70;15.27;;;-4.80;99.90;;;;;;5070434;28;20025;-69
2022/12/10 07:36:24;;;;;;;31.90;14.07;;;-4.70;99.90;;;;;;5069209;28;20535;-68
2022/12/10 07:38:54;;;;;;;33.85;15.63;;;-4.80;99.90;;;;;;5068142;28;20064;-68
2022/12/10 07:41:21;;;;;;;33.03;15.00;;;-4.90;99.90;;;;;;5068648;28;20028;-69
2022/12/10 07:43:48;;;;;;;31.40;14.00;;;-4.80;99.90;;;;;;5067704;28;20028;-69
2022/12/10 07:46:17;;;;;;;26.85;13.30;;;-4.80;99.90;;;;;;5069705;28;20067;-69
2022/12/10 07:48:45;;;;;;;33.35;14.57;;;-4.80;99.90;;;;;;5066098;28;20036;-68
2022/12/10 07:51:11;;;;;;;31.85;14.63;;;-4.80;99.90;;;;;;5067485;28;20021;-69
2022/12/10 07:53:38;;;;;;;30.52;14.55;;;-4.80;99.90;;;;;;5057946;28;20036;-70
2022/12/10 07:56:05;;;;;;;34.97;14.38;;;-4.90;99.90;;;;;;5063073;28;20027;-69
2022/12/10 07:58:31;;;;;;;33.37;14.20;;;-4.80;99.90;;;;;;5059151;28;20037;-69
2022/12/10 08:00:57;;;;;;;29.92;13.38;;;-4.90;99.90;;;;;;5067134;28;20460;-70
2022/12/10 08:03:23;;;;;;;28.37;14.40;;;-4.90;99.90;;;;;;5068734;28;20036;-70
2022/12/10 08:06:10;;;;;;;30.10;14.87;;;-4.90;99.90;;;;;;5068817;28;20483;-71
2022/12/10 08:08:37;;;;;;;28.73;14.10;;;-4.80;99.90;;;;;;5059006;28;20403;-70
2022/12/10 08:11:04;;;;;;;28.13;13.90;;;-4.70;99.90;;;;;;5071124;28;20115;-69
2022/12/10 08:13:30;;;;;;;29.03;14.60;;;-4.70;99.90;;;;;;5069311;28;20453;-65
2022/12/10 08:16:04;;;;;;;27.30;14.15;;;-4.60;99.90;;;;;;5067817;28;20486;-68
2022/12/10 08:18:31;;;;;;;30.15;14.27;;;-4.50;99.90;;;;;;5069825;28;20032;-68
2022/12/10 08:20:58;;;;;;;28.95;14.00;;;-4.50;99.90;;;;;;5071996;28;20112;-68
2022/12/10 08:23:24;;;;;;;31.90;14.80;;;-4.50;99.90;;;;;;5066721;28;20048;-70
2022/12/10 08:25:50;;;;;;;30.35;13.30;;;-4.50;99.90;;;;;;5064660;28;20031;-70
2022/12/10 08:28:16;;;;;;;28.58;13.55;;;-4.40;99.90;;;;;;5068558;28;20123;-69
2022/12/10 08:30:50;;;;;;;36.72;15.00;;;-4.30;99.90;;;;;;5069148;28;20051;-70
2022/12/10 08:33:16;;;;;;;29.88;13.73;;;-4.30;99.90;;;;;;5064668;28;20021;-70
2022/12/10 08:35:42;;;;;;;32.20;15.07;;;-4.30;99.90;;;;;;5070832;28;20387;-70
2022/12/10 08:38:08;;;;;;;32.22;15.50;;;-4.20;99.90;;;;;;5071236;28;20047;-70
2022/12/10 08:40:34;;;;;;;31.83;16.25;;;-4.20;99.90;;;;;;5065386;28;20124;-71
2022/12/10 08:42:59;;;;;;;30.77;15.43;;;-4.20;99.90;;;;;;5069407;28;20033;-70
2022/12/10 08:45:25;;;;;;;30.70;15.52;;;-4.10;99.90;;;;;;5072069;28;20025;-70
2022/12/10 08:47:52;;;;;;;33.80;16.80;;;-4.20;99.90;;;;;;5069427;28;20048;-71
2022/12/10 08:50:17;;;;;;;35.20;15.35;;;-4.20;99.90;;;;;;5071586;28;20013;-69
2022/12/10 08:52:43;;;;;;;33.13;16.67;;;-4.10;99.90;;;;;;5069244;28;20020;-70
2022/12/10 08:55:09;;;;;;;34.70;16.05;;;-4.00;99.90;;;;;;5070693;28;20021;-70
2022/12/10 08:57:35;;;;;;;32.83;14.63;;;-4.10;99.90;;;;;;5069278;28;20039;-70
2022/12/10 09:00:01;;;;;;;28.13;14.38;;;-4.00;99.90;;;;;;5071025;28;20071;-70
2022/12/10 09:02:26;;;;;;;34.85;16.20;;;-4.00;99.90;;;;;;5071078;28;20052;-69
2022/12/10 09:04:52;;;;;;;30.58;15.25;;;-4.00;99.90;;;;;;5072658;28;20033;-69
2022/12/10 09:07:18;;;;;;;32.10;16.58;;;-4.10;99.90;;;;;;5071715;28;20035;-70
2022/12/10 09:09:44;;;;;;;34.10;16.42;;;-4.00;99.90;;;;;;5068686;28;20036;-69
2022/12/10 09:12:09;;;;;;;29.35;15.68;;;-3.90;99.90;;;;;;5069726;28;20036;-69
2022/12/10 09:14:38;;;;;;;33.85;15.77;;;-3.90;99.90;;;;;;5069412;28;20032;-69
2022/12/10 09:17:04;;;;;;;33.50;16.30;;;-3.90;99.90;;;;;;5070903;28;20025;-70
2022/12/10 09:19:30;;;;;;;37.10;18.90;;;-3.90;99.90;;;;;;5071091;28;20029;-70
2022/12/10 09:21:56;;;;;;;32.50;17.35;;;-3.90;99.90;;;;;;5068580;28;20040;-70
2022/12/10 09:24:21;;;;;;;33.33;17.42;;;-3.80;99.90;;;;;;5070637;28;20040;-70
2022/12/10 09:26:47;;;;;;;29.10;15.65;;;-3.70;99.90;;;;;;5069034;28;20047;-70
2022/12/10 09:29:13;;;;;;;30.55;16.45;;;-3.70;99.90;;;;;;5073857;28;20046;-70
2022/12/10 09:31:39;;;;;;;32.75;15.50;;;-3.60;99.90;;;;;;5064295;28;20383;-70
2022/12/10 09:34:05;;;;;;;28.83;15.57;;;-3.50;99.90;;;;;;5068556;28;20178;-70
2022/12/10 09:36:31;;;;;;;31.95;15.07;;;-3.50;99.90;;;;;;5070022;28;20043;-70
2022/12/10 09:38:56;;;;;;;36.40;16.40;;;-3.40;99.90;;;;;;5069039;28;20070;-69
2022/12/10 09:41:25;;;;;;;38.08;19.17;;;-3.40;99.90;;;;;;5073688;28;20121;-70
2022/12/10 09:43:53;;;;;;;33.67;16.75;;;-3.30;99.90;;;;;;5069529;28;20028;-71
2022/12/10 09:46:44;;;;;;;33.13;16.00;;;-3.30;99.90;;;;;;5074624;28;20031;-70
2022/12/10 09:49:21;;;;;;;32.90;16.30;;;-3.30;99.90;;;;;;5069298;28;20041;-69
2022/12/10 09:51:47;;;;;;;32.53;16.20;;;-3.30;99.90;;;;;;5067749;28;20033;-71
2022/12/10 09:54:33;;;;;;;33.25;16.80;;;-3.20;99.90;;;;;;5067256;28;20094;-69
2022/12/10 09:57:01;;;;;;;28.23;14.52;;;-3.10;99.90;;;;;;5067200;28;20033;-69
2022/12/10 09:59:42;;;;;;;31.95;15.50;;;-3.00;99.90;;;;;;5069532;28;20052;-70
2022/12/10 10:02:23;;;;;;;29.23;15.10;;;-2.80;99.90;;;;;;5069015;28;20037;-70
2022/12/10 10:04:51;;;;;;;32.25;14.85;;;-2.90;99.90;;;;;;5063079;28;20029;-70
2022/12/10 10:07:24;;;;;;;30.20;15.15;;;-2.80;99.90;;;;;;5068650;28;20082;-70
2022/12/10 10:10:00;;;;;;;28.08;15.35;;;-2.60;99.90;;;;;;5064791;28;20031;-69
2022/12/10 10:12:31;;;;;;;37.75;16.60;;;-2.60;99.90;;;;;;5069052;28;20040;-70
2022/12/10 10:14:56;;;;;;;33.35;16.92;;;-2.60;99.90;;;;;;5068156;28;20024;-71
2022/12/10 10:17:37;;;;;;;30.88;16.23;;;-2.50;99.90;;;;;;5069130;28;20043;-70
2022/12/10 10:20:03;;;;;;;31.35;15.43;;;-2.40;99.90;;;;;;5058390;28;20052;-69
2022/12/10 10:22:30;;;;;;;33.10;15.65;;;-2.40;99.90;;;;;;5070264;28;20102;-69
2022/12/10 10:24:56;;;;;;;31.65;15.27;;;-2.30;99.90;;;;;;5068652;28;20086;-68
2022/12/10 10:27:28;;;;;;;33.47;17.70;;;-2.10;99.90;;;;;;5069965;28;20025;-70
2022/12/10 10:29:56;;;;;;;32.03;17.73;;;-2.00;99.90;;;;;;5060020;28;20032;-69
2022/12/10 10:32:48;;;;;;;27.90;14.88;;;-2.00;99.90;;;;;;5062027;28;20029;-69
2022/12/10 10:35:33;;;;;;;32.20;15.63;;;-1.90;99.90;;;;;;5062939;28;20041;-69
2022/12/10 10:38:05;;;;;;;32.38;15.30;;;-1.90;99.90;;;;;;5063139;28;20086;-69
2022/12/10 10:40:40;;;;;;;28.13;16.02;;;-1.80;99.90;;;;;;5069420;28;20028;-69
2022/12/10 10:43:12;;;;;;;28.25;14.90;;;-1.80;99.90;;;;;;5069354;28;20040;-69
2022/12/10 10:45:56;;;;;;;;;;;-1.70;99.90;;;;;;5068279;28;20534;-68
2022/12/10 10:48:24;;;;;;;21.27;12.00;;;-1.60;99.90;;;;;;5072152;28;19946;-67
2022/12/10 10:50:55;;;;;;;28.90;13.55;;;-1.50;99.90;;;;;;5073373;28;20606;-68
2022/12/10 10:53:24;;;;;;;22.83;13.30;;;-1.30;99.90;;;;;;5070265;28;20495;-66
2022/12/10 10:55:53;;;;;;;30.00;14.80;;;-1.30;99.90;;;;;;5073426;28;20461;-67
2022/12/10 10:58:23;;;;;;;27.73;14.50;;;-1.20;99.90;;;;;;5069331;28;20033;-67
2022/12/10 11:00:59;;;;;;;24.50;13.15;;;-1.00;99.90;;;;;;5063364;28;20538;-68
2022/12/10 11:03:27;;;;;;;24.42;14.20;;;-1.00;99.90;;;;;;5069890;28;20039;-67
2022/12/10 11:05:55;;;;;;;26.63;14.70;;;-1.00;99.90;;;;;;5068004;28;20012;-67
2022/12/10 11:08:24;;;;;;;27.10;15.32;;;-1.00;99.90;;;;;;5069673;28;20024;-68
2022/12/10 11:11:10;;;;;;;25.17;14.57;;;-0.90;99.90;;;;;;5066326;28;20047;-66
2022/12/10 11:13:37;;;;;;;27.98;14.27;;;-0.80;99.90;;;;;;5068269;28;20032;-68
2022/12/10 11:16:15;;;;;;;29.15;14.65;;;-0.70;99.90;;;;;;5069902;28;20437;-68
2022/12/10 11:18:57;;;;;;;31.52;14.73;;;-0.50;99.90;;;;;;5060074;28;20044;-68
2022/12/10 11:21:23;;;;;;;;;;;-0.40;99.90;;;;;;5065075;28;20040;-67
2022/12/10 11:23:53;;;;;;;26.52;14.48;;;-0.30;99.90;;;;;;5067284;28;19916;-68
2022/12/10 11:26:24;;;;;;;27.52;14.23;;;-0.10;99.90;;;;;;5068240;28;20488;-68
2022/12/10 11:29:46;;;;;;;27.95;14.30;;;0.10;99.90;;;;;;5067431;28;20079;-68
2022/12/10 11:32:41;;;;;;;24.38;12.07;;;0.20;99.90;;;;;;5026433;28;20064;-68
2022/12/10 11:35:39;;;;;;;25.42;13.93;;;0.40;99.90;;;;;;4987836;28;20065;-68
2022/12/10 11:38:34;;;;;;;24.80;13.82;;;0.70;99.90;;;;;;4987984;28;20046;-68
2022/12/10 11:41:16;;;;;;;23.25;12.85;;;1.00;99.90;;;;;;4987534;28;20034;-67
2022/12/10 11:44:01;;;;;;;24.83;12.48;;;1.30;99.90;;;;;;4969816;28;20414;-68
2022/12/10 11:46:53;;;;;;;25.35;13.27;;;2.20;99.90;;;;;;4987664;28;20037;-67
2022/12/10 11:49:25;;;;;;;;;;;2.90;99.90;;;;;;4969975;28;20610;-68
2022/12/10 11:52:18;;;;;;;18.95;11.82;;;3.60;99.90;;;;;;4980841;28;20333;-68
2022/12/10 11:55:07;;;;;;;21.10;12.20;;;4.00;99.90;;;;;;4990042;28;20173;-68
2022/12/10 11:58:14;;;;;;;21.40;12.27;;;4.40;99.90;;;;;;4991163;28;20034;-68
2022/12/10 12:00:51;;;;;;;19.27;11.52;;;5.00;99.90;;;;;;4989938;28;20453;-68
2022/12/10 12:03:49;;;;;;;14.32;8.82;;;5.20;99.90;;;;;;4991499;28;20101;-68
2022/12/10 12:06:32;;;;;;;17.20;10.07;;;5.20;99.90;;;;;;4985491;28;20040;-68
2022/12/10 12:08:57;;;;;;;16.92;10.20;;;5.50;99.90;;;;;;4985324;28;20034;-68
2022/12/10 12:11:45;;;;;;;17.65;10.57;;;5.70;99.90;;;;;;5026926;28;20086;-68
2022/12/10 12:14:26;;;;;;;15.65;10.15;;;5.90;99.90;;;;;;5072629;28;20109;-67
2022/12/10 12:17:05;;;;;;;17.38;9.57;;;6.00;99.90;;;;;;5061971;28;20024;-67
2022/12/10 12:19:47;;;;;;;18.05;9.60;;;6.20;99.90;;;;;;5070996;28;20488;-66
2022/12/10 12:22:30;;;;;;;12.88;7.60;;;6.10;99.90;;;;;;5071079;28;20064;-67
2022/12/10 12:25:06;;;;;;;14.90;8.65;;;5.90;99.90;;;;;;5070763;28;20020;-67
2022/12/10 12:27:40;;;;;;;17.40;9.98;;;5.90;99.90;;;;;;5071889;28;20052;-68
2022/12/10 12:30:19;;;;;;;18.10;10.30;;;5.90;99.90;;;;;;5060222;28;20468;-68
2022/12/10 12:33:28;;;;;;;14.48;8.93;;;6.00;99.90;;;;;;5068791;28;20040;-67
2022/12/10 12:36:09;;;;;;;18.95;10.57;;;6.70;99.90;;;;;;5061766;28;20040;-66
2022/12/10 12:38:55;;;;;;;21.35;10.93;;;7.50;99.90;;;;;;5070416;28;20369;-67
2022/12/10 12:41:53;;;;;;;19.67;10.75;;;7.90;99.90;;;;;;5072180;28;20029;-66
2022/12/10 12:44:30;;;;;;;20.92;11.25;;;8.20;99.90;;;;;;5068530;28;20123;-66
2022/12/10 12:47:16;;;;;;;22.23;11.00;;;8.40;99.90;;;;;;5070240;28;20033;-67
2022/12/10 12:49:43;;;;;;;20.55;12.02;;;8.30;99.90;;;;;;5061863;28;20028;-67
2022/12/10 12:52:18;;;;;;;20.40;11.68;;;8.20;99.90;;;;;;5071987;28;20017;-68
2022/12/10 12:54:44;;;;;;;19.33;11.00;;;8.10;99.90;;;;;;5059423;28;20463;-67
2022/12/10 12:57:53;;;;;;;17.60;11.65;;;8.10;99.90;;;;;;5071534;28;20136;-68